Terminal Aerodrome Forecast
Issued by NWS

Home | Current Version | Previous Version | Text Only | Print | Product List | Glossary Off
Versions: 1 2 3 4 5 6 7 8 9 10 11 12 13 14 15

833
FTUS42 KMHX 231134
TAFOAJ
TAF
KOAJ 231134Z 2312/2412 21006KT P6SM VCSH SCT005 OVC015
      TEMPO 2312/2313 OVC005
     FM231500 22012G20KT P6SM SCT040
     FM240100 20010KT P6SM FEW020 SCT250
      AMD LTD TO CLD VIS AND WIND=

USA.gov is the U.S. government's official web portal to all federal, state and local government web resources and services.